sensor_id;sensor_type;location;lat;lon;timestamp;P1;durP1;ratioP1;P2;durP2;ratioP2
19940;SDS011;10132;50.864;5.176;2023-03-19T00:00:06;4.97;;;3.40;;
19940;SDS011;10132;50.864;5.176;2023-03-19T00:02:09;4.57;;;3.60;;
19940;SDS011;10132;50.864;5.176;2023-03-19T00:04:11;3.90;;;3.40;;
19940;SDS011;10132;50.864;5.176;2023-03-19T00:06:15;4.20;;;3.33;;
19940;SDS011;10132;50.864;5.176;2023-03-19T00:08:18;5.70;;;3.60;;
19940;SDS011;10132;50.864;5.176;2023-03-19T00:10:21;7.80;;;3.63;;
19940;SDS011;10132;50.864;5.176;2023-03-19T00:12:23;4.33;;;3.33;;
19940;SDS011;10132;50.864;5.176;2023-03-19T00:14:25;5.43;;;3.53;;
19940;SDS011;10132;50.864;5.176;2023-03-19T00:16:27;5.73;;;3.90;;
19940;SDS011;10132;50.864;5.176;2023-03-19T00:18:29;4.90;;;3.77;;
19940;SDS011;10132;50.864;5.176;2023-03-19T00:20:31;4.13;;;3.17;;
19940;SDS011;10132;50.864;5.176;2023-03-19T00:22:34;5.47;;;3.30;;
19940;SDS011;10132;50.864;5.176;2023-03-19T00:24:36;5.73;;;3.83;;
19940;SDS011;10132;50.864;5.176;2023-03-19T00:26:39;4.73;;;3.27;;
19940;SDS011;10132;50.864;5.176;2023-03-19T00:28:41;5.23;;;3.40;;
19940;SDS011;10132;50.864;5.176;2023-03-19T00:30:43;4.70;;;3.10;;
19940;SDS011;10132;50.864;5.176;2023-03-19T00:32:45;5.73;;;3.63;;
19940;SDS011;10132;50.864;5.176;2023-03-19T00:34:47;5.10;;;3.43;;
19940;SDS011;10132;50.864;5.176;2023-03-19T00:36:50;5.80;;;3.80;;
19940;SDS011;10132;50.864;5.176;2023-03-19T00:38:51;6.73;;;3.40;;
19940;SDS011;10132;50.864;5.176;2023-03-19T00:40:53;5.57;;;3.83;;
19940;SDS011;10132;50.864;5.176;2023-03-19T00:42:57;4.20;;;3.40;;
19940;SDS011;10132;50.864;5.176;2023-03-19T00:44:59;3.70;;;3.33;;
19940;SDS011;10132;50.864;5.176;2023-03-19T00:47:01;6.47;;;3.23;;
19940;SDS011;10132;50.864;5.176;2023-03-19T00:49:03;4.53;;;3.37;;
19940;SDS011;10132;50.864;5.176;2023-03-19T00:51:06;4.07;;;3.00;;
19940;SDS011;10132;50.864;5.176;2023-03-19T00:53:09;3.73;;;3.10;;
19940;SDS011;10132;50.864;5.176;2023-03-19T00:55:11;5.53;;;3.50;;
19940;SDS011;10132;50.864;5.176;2023-03-19T00:57:13;5.50;;;3.43;;
19940;SDS011;10132;50.864;5.176;2023-03-19T00:59:17;4.20;;;3.20;;
19940;SDS011;10132;50.864;5.176;2023-03-19T01:01:19;4.83;;;3.30;;
19940;SDS011;10132;50.864;5.176;2023-03-19T01:03:21;4.13;;;3.17;;
19940;SDS011;10132;50.864;5.176;2023-03-19T01:05:23;5.07;;;3.20;;
19940;SDS011;10132;50.864;5.176;2023-03-19T01:07:25;5.67;;;3.13;;
19940;SDS011;10132;50.864;5.176;2023-03-19T01:09:27;4.30;;;2.97;;
19940;SDS011;10132;50.864;5.176;2023-03-19T01:11:29;5.00;;;3.70;;
19940;SDS011;10132;50.864;5.176;2023-03-19T01:13:31;4.47;;;3.20;;
19940;SDS011;10132;50.864;5.176;2023-03-19T01:15:35;5.60;;;3.30;;
19940;SDS011;10132;50.864;5.176;2023-03-19T01:17:37;4.93;;;3.70;;
19940;SDS011;10132;50.864;5.176;2023-03-19T01:19:39;4.73;;;3.23;;
19940;SDS011;10132;50.864;5.176;2023-03-19T01:21:41;5.20;;;3.43;;
19940;SDS011;10132;50.864;5.176;2023-03-19T01:23:45;3.73;;;3.30;;
19940;SDS011;10132;50.864;5.176;2023-03-19T01:25:47;4.30;;;3.57;;
19940;SDS011;10132;50.864;5.176;2023-03-19T01:27:49;4.77;;;3.30;;
19940;SDS011;10132;50.864;5.176;2023-03-19T01:29:51;5.07;;;3.63;;
19940;SDS011;10132;50.864;5.176;2023-03-19T01:31:55;4.13;;;3.43;;
19940;SDS011;10132;50.864;5.176;2023-03-19T01:33:56;5.07;;;3.77;;
19940;SDS011;10132;50.864;5.176;2023-03-19T01:35:58;4.53;;;3.50;;
19940;SDS011;10132;50.864;5.176;2023-03-19T01:38:02;5.70;;;3.47;;
19940;SDS011;10132;50.864;5.176;2023-03-19T01:40:05;4.27;;;3.87;;
19940;SDS011;10132;50.864;5.176;2023-03-19T01:42:10;4.63;;;3.60;;
19940;SDS011;10132;50.864;5.176;2023-03-19T01:44:22;6.10;;;3.53;;
19940;SDS011;10132;50.864;5.176;2023-03-19T01:46:29;4.13;;;3.40;;
19940;SDS011;10132;50.864;5.176;2023-03-19T01:48:36;4.70;;;3.40;;
19940;SDS011;10132;50.864;5.176;2023-03-19T01:50:42;4.37;;;3.57;;
19940;SDS011;10132;50.864;5.176;2023-03-19T01:52:45;5.07;;;3.63;;
19940;SDS011;10132;50.864;5.176;2023-03-19T01:54:48;5.50;;;3.60;;
19940;SDS011;10132;50.864;5.176;2023-03-19T01:56:51;6.40;;;3.67;;
19940;SDS011;10132;50.864;5.176;2023-03-19T01:58:59;6.83;;;3.50;;
19940;SDS011;10132;50.864;5.176;2023-03-19T02:01:06;5.00;;;3.40;;
19940;SDS011;10132;50.864;5.176;2023-03-19T02:03:08;5.67;;;3.67;;
19940;SDS011;10132;50.864;5.176;2023-03-19T02:05:12;5.30;;;3.63;;
19940;SDS011;10132;50.864;5.176;2023-03-19T02:07:24;4.80;;;3.90;;
19940;SDS011;10132;50.864;5.176;2023-03-19T02:09:26;5.90;;;4.00;;
19940;SDS011;10132;50.864;5.176;2023-03-19T02:11:29;4.20;;;3.60;;
19940;SDS011;10132;50.864;5.176;2023-03-19T02:13:32;4.67;;;3.60;;
19940;SDS011;10132;50.864;5.176;2023-03-19T02:15:34;4.43;;;3.80;;
19940;SDS011;10132;50.864;5.176;2023-03-19T02:17:37;5.47;;;3.90;;
19940;SDS011;10132;50.864;5.176;2023-03-19T02:19:42;4.70;;;3.50;;
19940;SDS011;10132;50.864;5.176;2023-03-19T02:21:49;6.50;;;4.30;;
19940;SDS011;10132;50.864;5.176;2023-03-19T02:23:53;4.73;;;4.13;;
19940;SDS011;10132;50.864;5.176;2023-03-19T02:26:03;5.43;;;3.90;;
19940;SDS011;10132;50.864;5.176;2023-03-19T02:28:08;6.20;;;4.30;;
19940;SDS011;10132;50.864;5.176;2023-03-19T02:30:17;6.27;;;4.30;;
19940;SDS011;10132;50.864;5.176;2023-03-19T02:32:20;4.90;;;4.40;;
19940;SDS011;10132;50.864;5.176;2023-03-19T02:34:32;5.37;;;4.70;;
19940;SDS011;10132;50.864;5.176;2023-03-19T02:36:40;5.27;;;4.23;;
19940;SDS011;10132;50.864;5.176;2023-03-19T02:38:45;6.33;;;4.60;;
19940;SDS011;10132;50.864;5.176;2023-03-19T02:40:48;5.23;;;4.47;;
19940;SDS011;10132;50.864;5.176;2023-03-19T02:42:55;4.80;;;4.30;;
19940;SDS011;10132;50.864;5.176;2023-03-19T02:44:57;5.80;;;5.20;;
19940;SDS011;10132;50.864;5.176;2023-03-19T02:46:59;6.17;;;5.57;;
19940;SDS011;10132;50.864;5.176;2023-03-19T02:49:01;6.47;;;5.50;;
19940;SDS011;10132;50.864;5.176;2023-03-19T02:51:03;6.77;;;5.70;;
19940;SDS011;10132;50.864;5.176;2023-03-19T02:53:05;7.30;;;5.83;;
19940;SDS011;10132;50.864;5.176;2023-03-19T02:55:07;7.73;;;6.70;;
19940;SDS011;10132;50.864;5.176;2023-03-19T02:57:09;8.27;;;6.50;;
19940;SDS011;10132;50.864;5.176;2023-03-19T02:59:13;6.93;;;6.23;;
19940;SDS011;10132;50.864;5.176;2023-03-19T03:01:15;8.70;;;6.93;;
19940;SDS011;10132;50.864;5.176;2023-03-19T03:03:17;7.63;;;6.87;;
19940;SDS011;10132;50.864;5.176;2023-03-19T03:05:19;6.97;;;6.20;;
19940;SDS011;10132;50.864;5.176;2023-03-19T03:07:21;6.77;;;6.17;;
19940;SDS011;10132;50.864;5.176;2023-03-19T03:09:23;8.60;;;6.33;;
19940;SDS011;10132;50.864;5.176;2023-03-19T03:11:26;6.80;;;6.13;;
19940;SDS011;10132;50.864;5.176;2023-03-19T03:13:28;7.53;;;6.30;;
19940;SDS011;10132;50.864;5.176;2023-03-19T03:15:31;7.63;;;6.37;;
19940;SDS011;10132;50.864;5.176;2023-03-19T03:17:35;8.50;;;5.83;;
19940;SDS011;10132;50.864;5.176;2023-03-19T03:19:37;7.40;;;6.70;;
19940;SDS011;10132;50.864;5.176;2023-03-19T03:21:39;7.17;;;6.47;;
19940;SDS011;10132;50.864;5.176;2023-03-19T03:23:41;7.23;;;6.53;;
19940;SDS011;10132;50.864;5.176;2023-03-19T03:25:43;6.73;;;6.13;;
19940;SDS011;10132;50.864;5.176;2023-03-19T03:27:45;8.47;;;6.77;;
19940;SDS011;10132;50.864;5.176;2023-03-19T03:29:47;7.60;;;6.80;;
19940;SDS011;10132;50.864;5.176;2023-03-19T03:31:51;8.27;;;6.80;;
19940;SDS011;10132;50.864;5.176;2023-03-19T03:33:53;7.70;;;7.00;;
19940;SDS011;10132;50.864;5.176;2023-03-19T03:35:55;8.30;;;7.50;;
19940;SDS011;10132;50.864;5.176;2023-03-19T03:37:57;7.97;;;7.27;;
19940;SDS011;10132;50.864;5.176;2023-03-19T03:39:58;7.10;;;6.50;;
19940;SDS011;10132;50.864;5.176;2023-03-19T03:42:05;8.50;;;7.70;;
19940;SDS011;10132;50.864;5.176;2023-03-19T03:44:07;7.63;;;6.93;;
19940;SDS011;10132;50.864;5.176;2023-03-19T03:46:09;7.80;;;7.10;;
19940;SDS011;10132;50.864;5.176;2023-03-19T03:48:14;8.30;;;7.50;;
19940;SDS011;10132;50.864;5.176;2023-03-19T03:50:16;9.20;;;8.30;;
19940;SDS011;10132;50.864;5.176;2023-03-19T03:52:18;9.17;;;8.27;;
19940;SDS011;10132;50.864;5.176;2023-03-19T03:54:20;8.57;;;7.77;;
19940;SDS011;10132;50.864;5.176;2023-03-19T03:56:22;8.67;;;7.77;;
19940;SDS011;10132;50.864;5.176;2023-03-19T03:58:24;9.73;;;8.87;;
19940;SDS011;10132;50.864;5.176;2023-03-19T04:00:27;10.07;;;9.07;;
19940;SDS011;10132;50.864;5.176;2023-03-19T04:02:29;11.03;;;9.87;;
19940;SDS011;10132;50.864;5.176;2023-03-19T04:04:32;10.47;;;9.47;;
19940;SDS011;10132;50.864;5.176;2023-03-19T04:06:34;10.43;;;9.43;;
19940;SDS011;10132;50.864;5.176;2023-03-19T04:08:36;10.93;;;9.93;;
19940;SDS011;10132;50.864;5.176;2023-03-19T04:10:39;12.10;;;10.03;;
19940;SDS011;10132;50.864;5.176;2023-03-19T04:12:41;11.57;;;10.47;;
19940;SDS011;10132;50.864;5.176;2023-03-19T04:14:45;12.63;;;11.33;;
19940;SDS011;10132;50.864;5.176;2023-03-19T04:16:47;11.27;;;10.13;;
19940;SDS011;10132;50.864;5.176;2023-03-19T04:18:49;12.00;;;10.77;;
19940;SDS011;10132;50.864;5.176;2023-03-19T04:20:52;11.90;;;10.53;;
19940;SDS011;10132;50.864;5.176;2023-03-19T04:22:54;13.10;;;10.43;;
19940;SDS011;10132;50.864;5.176;2023-03-19T04:24:56;11.37;;;10.23;;
19940;SDS011;10132;50.864;5.176;2023-03-19T04:26:58;12.13;;;10.93;;
19940;SDS011;10132;50.864;5.176;2023-03-19T04:29:00;11.90;;;10.67;;
19940;SDS011;10132;50.864;5.176;2023-03-19T04:31:03;11.40;;;10.30;;
19940;SDS011;10132;50.864;5.176;2023-03-19T04:33:06;12.63;;;11.33;;
19940;SDS011;10132;50.864;5.176;2023-03-19T04:35:08;11.67;;;10.57;;
19940;SDS011;10132;50.864;5.176;2023-03-19T04:37:12;11.80;;;10.70;;
19940;SDS011;10132;50.864;5.176;2023-03-19T04:39:14;11.47;;;10.33;;
19940;SDS011;10132;50.864;5.176;2023-03-19T04:41:16;12.33;;;11.13;;
19940;SDS011;10132;50.864;5.176;2023-03-19T04:43:18;12.60;;;11.33;;
19940;SDS011;10132;50.864;5.176;2023-03-19T04:45:21;13.23;;;11.87;;
19940;SDS011;10132;50.864;5.176;2023-03-19T04:47:23;13.30;;;11.10;;
19940;SDS011;10132;50.864;5.176;2023-03-19T04:49:25;13.27;;;11.40;;
19940;SDS011;10132;50.864;5.176;2023-03-19T04:51:27;13.00;;;11.70;;
19940;SDS011;10132;50.864;5.176;2023-03-19T04:53:30;13.53;;;12.13;;
19940;SDS011;10132;50.864;5.176;2023-03-19T04:55:33;13.27;;;11.07;;
19940;SDS011;10132;50.864;5.176;2023-03-19T04:57:35;12.43;;;11.17;;
19940;SDS011;10132;50.864;5.176;2023-03-19T04:59:37;13.70;;;12.30;;
19940;SDS011;10132;50.864;5.176;2023-03-19T05:01:39;14.63;;;12.67;;
19940;SDS011;10132;50.864;5.176;2023-03-19T05:03:41;14.00;;;12.50;;
19940;SDS011;10132;50.864;5.176;2023-03-19T05:05:43;13.53;;;12.13;;
19940;SDS011;10132;50.864;5.176;2023-03-19T05:07:45;13.83;;;12.10;;
19940;SDS011;10132;50.864;5.176;2023-03-19T05:09:48;14.43;;;12.40;;
19940;SDS011;10132;50.864;5.176;2023-03-19T05:11:50;13.20;;;11.90;;
19940;SDS011;10132;50.864;5.176;2023-03-19T05:13:52;12.67;;;11.57;;
19940;SDS011;10132;50.864;5.176;2023-03-19T05:15:55;14.63;;;13.23;;
19940;SDS011;10132;50.864;5.176;2023-03-19T05:17:57;13.40;;;11.80;;
19940;SDS011;10132;50.864;5.176;2023-03-19T05:19:59;14.17;;;12.77;;
19940;SDS011;10132;50.864;5.176;2023-03-19T05:22:01;14.37;;;12.63;;
19940;SDS011;10132;50.864;5.176;2023-03-19T05:24:03;14.80;;;13.07;;
19940;SDS011;10132;50.864;5.176;2023-03-19T05:26:07;14.40;;;13.00;;
19940;SDS011;10132;50.864;5.176;2023-03-19T05:28:09;13.90;;;12.60;;
19940;SDS011;10132;50.864;5.176;2023-03-19T05:30:11;14.53;;;13.13;;
19940;SDS011;10132;50.864;5.176;2023-03-19T05:32:13;14.83;;;13.40;;
19940;SDS011;10132;50.864;5.176;2023-03-19T05:34:15;14.27;;;12.87;;
19940;SDS011;10132;50.864;5.176;2023-03-19T05:36:17;14.40;;;12.97;;
19940;SDS011;10132;50.864;5.176;2023-03-19T05:38:19;14.20;;;12.70;;
19940;SDS011;10132;50.864;5.176;2023-03-19T05:40:21;14.20;;;12.80;;
19940;SDS011;10132;50.864;5.176;2023-03-19T05:42:25;14.53;;;13.13;;
19940;SDS011;10132;50.864;5.176;2023-03-19T05:44:27;14.90;;;13.40;;
19940;SDS011;10132;50.864;5.176;2023-03-19T05:46:29;15.47;;;13.90;;
19940;SDS011;10132;50.864;5.176;2023-03-19T05:48:31;15.43;;;13.90;;
19940;SDS011;10132;50.864;5.176;2023-03-19T05:50:33;15.23;;;13.73;;
19940;SDS011;10132;50.864;5.176;2023-03-19T05:52:35;15.13;;;13.63;;
19940;SDS011;10132;50.864;5.176;2023-03-19T05:54:37;15.33;;;13.83;;
19940;SDS011;10132;50.864;5.176;2023-03-19T05:56:40;15.13;;;13.53;;
19940;SDS011;10132;50.864;5.176;2023-03-19T05:58:43;14.60;;;13.10;;
19940;SDS011;10132;50.864;5.176;2023-03-19T06:00:45;15.17;;;13.60;;
19940;SDS011;10132;50.864;5.176;2023-03-19T06:02:48;14.83;;;13.33;;
19940;SDS011;10132;50.864;5.176;2023-03-19T06:04:50;15.10;;;13.30;;
19940;SDS011;10132;50.864;5.176;2023-03-19T06:06:52;15.07;;;12.77;;
19940;SDS011;10132;50.864;5.176;2023-03-19T06:08:54;15.57;;;14.07;;
19940;SDS011;10132;50.864;5.176;2023-03-19T06:10:56;14.87;;;13.37;;
19940;SDS011;10132;50.864;5.176;2023-03-19T06:12:58;14.90;;;13.40;;
19940;SDS011;10132;50.864;5.176;2023-03-19T06:15:02;15.83;;;14.23;;
19940;SDS011;10132;50.864;5.176;2023-03-19T06:17:04;15.43;;;13.83;;
19940;SDS011;10132;50.864;5.176;2023-03-19T06:19:06;16.53;;;14.73;;
19940;SDS011;10132;50.864;5.176;2023-03-19T06:21:08;16.33;;;14.73;;
19940;SDS011;10132;50.864;5.176;2023-03-19T06:23:10;15.23;;;13.70;;
19940;SDS011;10132;50.864;5.176;2023-03-19T06:25:12;15.30;;;13.67;;
19940;SDS011;10132;50.864;5.176;2023-03-19T06:27:14;16.30;;;14.70;;
19940;SDS011;10132;50.864;5.176;2023-03-19T06:29:16;16.20;;;14.60;;
19940;SDS011;10132;50.864;5.176;2023-03-19T06:31:19;15.87;;;14.23;;
19940;SDS011;10132;50.864;5.176;2023-03-19T06:33:21;14.90;;;13.47;;
19940;SDS011;10132;50.864;5.176;2023-03-19T06:35:26;15.13;;;13.63;;
19940;SDS011;10132;50.864;5.176;2023-03-19T06:37:28;15.20;;;13.60;;
19940;SDS011;10132;50.864;5.176;2023-03-19T06:39:30;16.77;;;13.73;;
19940;SDS011;10132;50.864;5.176;2023-03-19T06:41:32;15.97;;;14.40;;
19940;SDS011;10132;50.864;5.176;2023-03-19T06:43:34;15.23;;;13.83;;
19940;SDS011;10132;50.864;5.176;2023-03-19T06:45:37;15.73;;;14.23;;
19940;SDS011;10132;50.864;5.176;2023-03-19T06:47:40;14.40;;;13.00;;
19940;SDS011;10132;50.864;5.176;2023-03-19T06:49:43;17.57;;;14.57;;
19940;SDS011;10132;50.864;5.176;2023-03-19T06:51:45;15.43;;;13.90;;
19940;SDS011;10132;50.864;5.176;2023-03-19T06:53:47;15.23;;;13.70;;
19940;SDS011;10132;50.864;5.176;2023-03-19T06:55:49;15.47;;;13.87;;
19940;SDS011;10132;50.864;5.176;2023-03-19T06:57:52;15.50;;;14.00;;
19940;SDS011;10132;50.864;5.176;2023-03-19T06:59:54;14.87;;;13.40;;
19940;SDS011;10132;50.864;5.176;2023-03-19T07:01:56;15.33;;;13.67;;
19940;SDS011;10132;50.864;5.176;2023-03-19T07:04:00;15.20;;;13.70;;
19940;SDS011;10132;50.864;5.176;2023-03-19T07:06:02;15.07;;;13.67;;
19940;SDS011;10132;50.864;5.176;2023-03-19T07:08:04;16.40;;;14.67;;
19940;SDS011;10132;50.864;5.176;2023-03-19T07:10:10;15.10;;;13.80;;
19940;SDS011;10132;50.864;5.176;2023-03-19T07:12:12;15.83;;;14.33;;
19940;SDS011;10132;50.864;5.176;2023-03-19T07:14:15;15.37;;;13.70;;
19940;SDS011;10132;50.864;5.176;2023-03-19T07:16:16;14.57;;;13.17;;
19940;SDS011;10132;50.864;5.176;2023-03-19T07:18:18;15.50;;;13.97;;
19940;SDS011;10132;50.864;5.176;2023-03-19T07:20:22;14.37;;;13.00;;
19940;SDS011;10132;50.864;5.176;2023-03-19T07:22:24;14.60;;;13.10;;
19940;SDS011;10132;50.864;5.176;2023-03-19T07:24:26;14.30;;;12.90;;
19940;SDS011;10132;50.864;5.176;2023-03-19T07:26:28;13.93;;;12.63;;
19940;SDS011;10132;50.864;5.176;2023-03-19T07:28:30;14.07;;;12.30;;
19940;SDS011;10132;50.864;5.176;2023-03-19T07:30:32;13.37;;;12.07;;
19940;SDS011;10132;50.864;5.176;2023-03-19T07:32:34;13.27;;;12.07;;
19940;SDS011;10132;50.864;5.176;2023-03-19T07:34:37;11.97;;;10.80;;
19940;SDS011;10132;50.864;5.176;2023-03-19T07:36:41;11.30;;;10.27;;
19940;SDS011;10132;50.864;5.176;2023-03-19T07:38:43;12.63;;;11.53;;
19940;SDS011;10132;50.864;5.176;2023-03-19T07:40:45;12.53;;;11.33;;
19940;SDS011;10132;50.864;5.176;2023-03-19T07:42:47;13.00;;;11.80;;
19940;SDS011;10132;50.864;5.176;2023-03-19T07:44:49;12.57;;;11.27;;
19940;SDS011;10132;50.864;5.176;2023-03-19T07:46:51;13.07;;;11.87;;
19940;SDS011;10132;50.864;5.176;2023-03-19T07:48:53;13.03;;;11.80;;
19940;SDS011;10132;50.864;5.176;2023-03-19T07:50:55;14.27;;;12.87;;
19940;SDS011;10132;50.864;5.176;2023-03-19T07:52:59;13.40;;;12.10;;
19940;SDS011;10132;50.864;5.176;2023-03-19T07:55:01;13.30;;;12.00;;
19940;SDS011;10132;50.864;5.176;2023-03-19T07:57:03;14.90;;;13.10;;
19940;SDS011;10132;50.864;5.176;2023-03-19T07:59:05;14.23;;;12.83;;
19940;SDS011;10132;50.864;5.176;2023-03-19T08:01:07;14.23;;;12.83;;
19940;SDS011;10132;50.864;5.176;2023-03-19T08:03:09;13.93;;;12.63;;
19940;SDS011;10132;50.864;5.176;2023-03-19T08:05:11;13.10;;;11.90;;
19940;SDS011;10132;50.864;5.176;2023-03-19T08:07:13;14.40;;;13.00;;
19940;SDS011;10132;50.864;5.176;2023-03-19T08:09:17;14.43;;;13.03;;
19940;SDS011;10132;50.864;5.176;2023-03-19T08:11:19;13.97;;;12.57;;
19940;SDS011;10132;50.864;5.176;2023-03-19T08:13:21;14.77;;;13.30;;
19940;SDS011;10132;50.864;5.176;2023-03-19T08:15:23;14.13;;;12.83;;
19940;SDS011;10132;50.864;5.176;2023-03-19T08:17:26;13.90;;;12.47;;
19940;SDS011;10132;50.864;5.176;2023-03-19T08:19:28;14.17;;;12.87;;
19940;SDS011;10132;50.864;5.176;2023-03-19T08:21:29;13.27;;;12.07;;
19940;SDS011;10132;50.864;5.176;2023-03-19T08:23:32;14.23;;;12.73;;
19940;SDS011;10132;50.864;5.176;2023-03-19T08:25:36;13.27;;;11.97;;
19940;SDS011;10132;50.864;5.176;2023-03-19T08:27:38;12.27;;;11.07;;
19940;SDS011;10132;50.864;5.176;2023-03-19T08:29:40;12.60;;;11.40;;
19940;SDS011;10132;50.864;5.176;2023-03-19T08:31:42;12.70;;;11.60;;
19940;SDS011;10132;50.864;5.176;2023-03-19T08:33:45;12.20;;;11.03;;
19940;SDS011;10132;50.864;5.176;2023-03-19T08:35:47;11.17;;;10.17;;
19940;SDS011;10132;50.864;5.176;2023-03-19T08:37:49;11.17;;;10.07;;
19940;SDS011;10132;50.864;5.176;2023-03-19T08:39:51;10.90;;;9.87;;
19940;SDS011;10132;50.864;5.176;2023-03-19T08:41:54;10.20;;;9.30;;
19940;SDS011;10132;50.864;5.176;2023-03-19T08:43:56;9.37;;;8.47;;
19940;SDS011;10132;50.864;5.176;2023-03-19T08:45:58;9.00;;;8.20;;
19940;SDS011;10132;50.864;5.176;2023-03-19T08:48:01;10.47;;;8.40;;
19940;SDS011;10132;50.864;5.176;2023-03-19T08:50:03;8.50;;;7.70;;
19940;SDS011;10132;50.864;5.176;2023-03-19T08:52:06;9.07;;;8.17;;
19940;SDS011;10132;50.864;5.176;2023-03-19T08:54:08;10.50;;;8.10;;
19940;SDS011;10132;50.864;5.176;2023-03-19T08:56:12;8.90;;;7.80;;
19940;SDS011;10132;50.864;5.176;2023-03-19T08:58:16;8.00;;;7.27;;
19940;SDS011;10132;50.864;5.176;2023-03-19T09:00:18;8.53;;;7.50;;
19940;SDS011;10132;50.864;5.176;2023-03-19T09:02:20;8.27;;;6.90;;
19940;SDS011;10132;50.864;5.176;2023-03-19T09:04:22;9.77;;;7.10;;
19940;SDS011;10132;50.864;5.176;2023-03-19T09:06:24;8.27;;;7.13;;
19940;SDS011;10132;50.864;5.176;2023-03-19T09:08:26;8.47;;;7.67;;
19940;SDS011;10132;50.864;5.176;2023-03-19T09:10:29;8.23;;;7.43;;
19940;SDS011;10132;50.864;5.176;2023-03-19T09:12:32;8.03;;;7.23;;
19940;SDS011;10132;50.864;5.176;2023-03-19T09:14:36;9.43;;;7.97;;
19940;SDS011;10132;50.864;5.176;2023-03-19T09:16:38;8.10;;;7.03;;
19940;SDS011;10132;50.864;5.176;2023-03-19T09:18:40;8.33;;;6.97;;
19940;SDS011;10132;50.864;5.176;2023-03-19T09:20:42;8.53;;;7.20;;
19940;SDS011;10132;50.864;5.176;2023-03-19T09:22:46;8.37;;;7.53;;
19940;SDS011;10132;50.864;5.176;2023-03-19T09:24:48;9.97;;;7.43;;
19940;SDS011;10132;50.864;5.176;2023-03-19T09:26:50;8.70;;;7.80;;
19940;SDS011;10132;50.864;5.176;2023-03-19T09:28:52;8.47;;;7.57;;
19940;SDS011;10132;50.864;5.176;2023-03-19T09:30:55;8.70;;;7.87;;
19940;SDS011;10132;50.864;5.176;2023-03-19T09:32:57;8.80;;;7.90;;
19940;SDS011;10132;50.864;5.176;2023-03-19T09:34:59;8.77;;;7.87;;
19940;SDS011;10132;50.864;5.176;2023-03-19T09:37:01;8.80;;;8.00;;
19940;SDS011;10132;50.864;5.176;2023-03-19T09:39:03;9.10;;;8.23;;
19940;SDS011;10132;50.864;5.176;2023-03-19T09:41:06;9.43;;;8.43;;
19940;SDS011;10132;50.864;5.176;2023-03-19T09:43:17;9.43;;;8.53;;
19940;SDS011;10132;50.864;5.176;2023-03-19T09:45:29;9.70;;;8.50;;
19940;SDS011;10132;50.864;5.176;2023-03-19T09:47:34;8.43;;;7.57;;
19940;SDS011;10132;50.864;5.176;2023-03-19T09:49:39;9.03;;;7.60;;
19940;SDS011;10132;50.864;5.176;2023-03-19T09:51:46;8.83;;;8.00;;
19940;SDS011;10132;50.864;5.176;2023-03-19T09:53:52;8.93;;;8.03;;
19940;SDS011;10132;50.864;5.176;2023-03-19T09:55:57;8.47;;;7.67;;
19940;SDS011;10132;50.864;5.176;2023-03-19T09:58:04;9.03;;;8.23;;
19940;SDS011;10132;50.864;5.176;2023-03-19T10:00:18;8.37;;;7.03;;
19940;SDS011;10132;50.864;5.176;2023-03-19T10:02:28;8.70;;;6.50;;
19940;SDS011;10132;50.864;5.176;2023-03-19T10:04:43;6.27;;;5.67;;
19940;SDS011;10132;50.864;5.176;2023-03-19T10:06:54;8.13;;;5.70;;
19940;SDS011;10132;50.864;5.176;2023-03-19T10:09:11;8.50;;;6.07;;
19940;SDS011;10132;50.864;5.176;2023-03-19T10:11:34;6.43;;;5.80;;
19940;SDS011;10132;50.864;5.176;2023-03-19T10:13:48;5.37;;;4.40;;
19940;SDS011;10132;50.864;5.176;2023-03-19T10:15:58;7.53;;;5.13;;
19940;SDS011;10132;50.864;5.176;2023-03-19T10:18:04;5.50;;;4.83;;
19940;SDS011;10132;50.864;5.176;2023-03-19T10:20:14;6.70;;;6.10;;
19940;SDS011;10132;50.864;5.176;2023-03-19T10:22:24;6.77;;;6.03;;
19940;SDS011;10132;50.864;5.176;2023-03-19T10:24:30;7.43;;;5.70;;
19940;SDS011;10132;50.864;5.176;2023-03-19T10:26:36;6.40;;;5.00;;
19940;SDS011;10132;50.864;5.176;2023-03-19T10:28:38;6.30;;;4.37;;
19940;SDS011;10132;50.864;5.176;2023-03-19T10:30:44;6.97;;;4.30;;
19940;SDS011;10132;50.864;5.176;2023-03-19T10:32:53;5.17;;;3.97;;
19940;SDS011;10132;50.864;5.176;2023-03-19T10:35:08;5.27;;;4.13;;
19940;SDS011;10132;50.864;5.176;2023-03-19T10:37:19;6.50;;;4.57;;
19940;SDS011;10132;50.864;5.176;2023-03-19T10:39:22;7.90;;;4.50;;
19940;SDS011;10132;50.864;5.176;2023-03-19T10:41:29;4.75;;;3.20;;
19940;SDS011;10132;50.864;5.176;2023-03-19T10:43:38;6.27;;;3.57;;
19940;SDS011;10132;50.864;5.176;2023-03-19T10:45:41;5.67;;;3.30;;
19940;SDS011;10132;50.864;5.176;2023-03-19T10:47:43;6.77;;;3.60;;
19940;SDS011;10132;50.864;5.176;2023-03-19T10:49:46;5.15;;;3.53;;
19940;SDS011;10132;50.864;5.176;2023-03-19T10:51:51;7.20;;;3.97;;
19940;SDS011;10132;50.864;5.176;2023-03-19T10:53:56;5.77;;;3.20;;
19940;SDS011;10132;50.864;5.176;2023-03-19T10:56:01;5.83;;;3.30;;
19940;SDS011;10132;50.864;5.176;2023-03-19T10:58:08;6.07;;;3.13;;
19940;SDS011;10132;50.864;5.176;2023-03-19T11:00:18;6.03;;;2.30;;
19940;SDS011;10132;50.864;5.176;2023-03-19T11:02:24;7.07;;;2.53;;
19940;SDS011;10132;50.864;5.176;2023-03-19T11:04:30;6.63;;;2.70;;
19940;SDS011;10132;50.864;5.176;2023-03-19T11:06:33;5.07;;;2.63;;
19940;SDS011;10132;50.864;5.176;2023-03-19T11:08:37;6.53;;;2.70;;
19940;SDS011;10132;50.864;5.176;2023-03-19T11:10:44;7.30;;;2.60;;
19940;SDS011;10132;50.864;5.176;2023-03-19T11:12:51;7.67;;;2.60;;
19940;SDS011;10132;50.864;5.176;2023-03-19T11:14:55;6.43;;;2.50;;
19940;SDS011;10132;50.864;5.176;2023-03-19T11:17:01;7.60;;;3.40;;
19940;SDS011;10132;50.864;5.176;2023-03-19T11:19:10;6.43;;;2.93;;
19940;SDS011;10132;50.864;5.176;2023-03-19T11:21:21;6.73;;;2.30;;
19940;SDS011;10132;50.864;5.176;2023-03-19T11:23:26;4.77;;;2.00;;
19940;SDS011;10132;50.864;5.176;2023-03-19T11:25:33;5.57;;;2.08;;
19940;SDS011;10132;50.864;5.176;2023-03-19T11:27:37;4.03;;;2.20;;
19940;SDS011;10132;50.864;5.176;2023-03-19T11:29:39;5.93;;;2.40;;
19940;SDS011;10132;50.864;5.176;2023-03-19T11:31:44;3.10;;;1.87;;
19940;SDS011;10132;50.864;5.176;2023-03-19T11:34:07;3.67;;;2.30;;
19940;SDS011;10132;50.864;5.176;2023-03-19T11:36:21;5.17;;;2.27;;
19940;SDS011;10132;50.864;5.176;2023-03-19T11:38:29;5.90;;;2.20;;
19940;SDS011;10132;50.864;5.176;2023-03-19T11:40:43;3.92;;;2.35;;
19940;SDS011;10132;50.864;5.176;2023-03-19T11:42:51;5.82;;;2.65;;
19940;SDS011;10132;50.864;5.176;2023-03-19T11:45:08;5.27;;;2.20;;
19940;SDS011;10132;50.864;5.176;2023-03-19T11:47:18;5.93;;;2.60;;
19940;SDS011;10132;50.864;5.176;2023-03-19T11:51:58;5.60;;;1.97;;
19940;SDS011;10132;50.864;5.176;2023-03-19T11:54:11;4.27;;;1.77;;
19940;SDS011;10132;50.864;5.176;2023-03-19T11:56:26;4.40;;;1.80;;
19940;SDS011;10132;50.864;5.176;2023-03-19T11:58:42;6.77;;;2.80;;
19940;SDS011;10132;50.864;5.176;2023-03-19T12:00:55;6.22;;;2.50;;
19940;SDS011;10132;50.864;5.176;2023-03-19T12:05:42;4.90;;;3.27;;
19940;SDS011;10132;50.864;5.176;2023-03-19T12:07:56;5.30;;;3.70;;
19940;SDS011;10132;50.864;5.176;2023-03-19T12:10:15;8.53;;;4.00;;
19940;SDS011;10132;50.864;5.176;2023-03-19T12:12:31;7.32;;;3.30;;
19940;SDS011;10132;50.864;5.176;2023-03-19T12:14:41;6.70;;;3.70;;
19940;SDS011;10132;50.864;5.176;2023-03-19T12:16:57;6.20;;;3.23;;
19940;SDS011;10132;50.864;5.176;2023-03-19T12:19:20;8.80;;;3.72;;
19940;SDS011;10132;50.864;5.176;2023-03-19T12:21:39;4.10;;;3.30;;
19940;SDS011;10132;50.864;5.176;2023-03-19T12:23:52;8.02;;;3.65;;